Monday, June 25, 2018, 3:25 PM EDT
Back to Local

KSYR, Syracuse Hancock International Airport

Location: Syracuse, NY, United States Lat: 43.117
Local Time: 3:25 PM EDT (19:25 GMT) Lon: -76.1
Time Zone: US/Eastern Elev: 410 ft

Show me the last for .
Show Decoded

2018-06-25 14:54 METAR KSYR 251854Z 34012G20KT 10SM FEW050 FEW200 22/07 A3016 RMK AO2 SLP209
                 T02170072 =
2018-06-25 13:54 METAR KSYR 251754Z 33013KT 10SM FEW050 FEW200 22/08 A3016 RMK AO2 SLP207
                 T02170078 10217 20156 53007 =
2018-06-25 12:54 METAR KSYR 251654Z 30014G18KT 10SM FEW050 FEW200 21/09 A3014 RMK AO2 SLP203
                 T02110089 =
2018-06-25 11:54 METAR KSYR 251554Z 32010G18KT 10SM FEW028 FEW200 21/11 A3014 RMK AO2 SLP202
                 T02060111 =
2018-06-25 10:54 METAR KSYR 251454Z 30010KT 10SM FEW024 19/12 A3014 RMK AO2 SLP201 T01890122
                 53018 =
2018-06-25 09:54 METAR KSYR 251354Z 28012KT 10SM SCT022 18/13 A3011 RMK AO2 SLP193 T01830133 =
2018-06-25 09:32 METAR KSYR 251332Z 27010KT 10SM SCT021 17/14 A3011 RMK AO2 SCT V BKN T01720139 =
2018-06-25 08:54 METAR KSYR 251254Z 28007KT 10SM BKN015 BKN021 16/14 A3010 RMK AO2 SLP191 BKN015
                 V SCT T01610139 =
2018-06-25 08:09 METAR KSYR 251209Z 31008KT 10SM BKN015 16/14 A3009 RMK AO2 T01610144 =
2018-06-25 07:54 METAR KSYR 251154Z 29008KT 10SM FEW015 16/14 A3008 RMK AO2 SLP183 60000 70005
                 T01610139 10161 20139 51028 =
2018-06-25 06:54 METAR KSYR 251054Z 30007KT 10SM FEW010 SCT014 SCT200 14/14 A3006 RMK AO2 SLP176
                 T01440139 =
2018-06-25 06:15 METAR KSYR 251015Z 31006KT 10SM SCT010 SCT014 15/14 A3004 RMK AO2 T01500139 =
2018-06-25 05:54 METAR KSYR 250954Z 31005KT 10SM SCT010 BKN014 15/14 A3003 RMK AO2 SLP166
                 T01500139 =
2018-06-25 05:33 METAR KSYR 250933Z 32006KT 10SM BKN010 BKN014 14/14 A3002 RMK AO2 T01440139 =
2018-06-25 04:54 METAR KSYR 250854Z 34008KT 10SM BKN008 OVC013 15/14 A3000 RMK AO2 SLP155 60000
                 T01500144 53010 =
2018-06-25 04:45 METAR KSYR 250845Z 34008KT 10SM BKN008 OVC013 15/14 A3000 RMK AO2 T01500144 =
2018-06-25 04:13 METAR KSYR 250813Z 31008KT 10SM BKN006 BKN033 BKN085 15/14 A2999 RMK AO2
                 T01500144 =
2018-06-25 03:54 METAR KSYR 250754Z 30011KT 10SM BKN008 BKN033 BKN085 15/14 A2998 RMK AO2 DZE49
                 SLP148 P0000 T01500144 =
2018-06-25 03:26 METAR KSYR 250726Z 31008KT 10SM -DZ SCT008 BKN040 OVC070 16/14 A2997 RMK AO2
                 P0000 T01560144 =
2018-06-25 02:54 METAR KSYR 250654Z 30006KT 10SM -DZ SCT040 BKN060 OVC070 16/15 A2997 RMK AO2
                 RAB0558E47DZB47 SLP144 P0000 T01560150 =
2018-06-25 02:28 METAR KSYR 250628Z 31007KT 10SM -RA FEW031 OVC050 16/16 A2997 RMK AO2 RAB0558
                 P0000 T01560156 =
2018-06-25 01:54 METAR KSYR 250554Z 30008KT 10SM BKN006 BKN012 OVC025 17/16 A2997 RMK AO2 DZE21
                 SLP144 P0000 60000 T01670161 10178 20161 53008 =
2018-06-25 01:29 METAR KSYR 250529Z 29007KT 10SM BKN006 OVC022 17/16 A2996 RMK AO2 DZE21 P0000
                 T01670161 =
2018-06-25 00:54 METAR KSYR 250454Z 29007KT 10SM -DZ SCT008 BKN023 OVC035 17/16 A2995 RMK AO2
                 DZB32 SLP138 P0000 T01670161 402220144 =
2018-06-25 00:38 METAR KSYR 250438Z 29008KT 10SM -DZ SCT010 BKN023 OVC030 17/17 A2995 =
2018-06-25 00:07 METAR KSYR 250407Z 28006KT 10SM SCT021 BKN030 BKN038 16/16 A2995 RMK AO2
                 T01610161 =
2018-06-24 23:54 METAR KSYR 250354Z 30006KT 10SM SCT019 BKN029 BKN048 16/16 A2995 RMK AO2 SLP138
                 T01610161 =
2018-06-24 23:16 METAR KSYR 250316Z 29008KT 10SM FEW006 BKN022 OVC033 16/16 A2994 RMK AO2
                 T01610161 =
2018-06-24 23:01 METAR KSYR 250301Z 29008KT 10SM BKN022 OVC028 17/17 A2995 RMK AO2 T01670167 =
2018-06-24 22:54 METAR KSYR 250254Z 28008KT 10SM BKN020 BKN100 17/17 A2995 RMK AO2 SLP136 60000
                 T01670167 53026 =
2018-06-24 22:46 METAR KSYR 250246Z 28007KT 10SM BKN020 BKN100 17/17 A2994 RMK AO2 T01670167 =
2018-06-24 21:54 METAR KSYR 250154Z 32006KT 10SM FEW012 BKN070 BKN090 17/17 A2992 RMK AO2 SLP128
                 T01670167 =
2018-06-24 20:54 METAR KSYR 250054Z 30008KT 10SM FEW006 SCT009 OVC060 18/18 A2990 RMK AO2
                 RAB03E17 SLP119 P0000 T01780178 =
2018-06-24 20:11 METAR KSYR 250011Z 30007KT 10SM -RA BKN009 OVC036 18/18 A2988 RMK AO2 RAB03
                 P0000 T01780178 =
2018-06-24 19:54 METAR KSYR 242354Z 30006KT 10SM BKN007 OVC041 18/18 A2987 RMK AO2 DZE42 SLP110
                 P0000 60005 T01780178 10211 20178 53013 =
2018-06-24 18:54 METAR KSYR 242254Z 31006KT 6SM -DZ BR BKN007 BKN033 OVC050 18/18 A2985 RMK AO2
                 DZE16B46RAB41E46 SLP105 P0001 T01780178 =
2018-06-24 18:46 METAR KSYR 242246Z 32006KT 7SM -DZ BKN007 BKN030 OVC038 18/18 A2985 RMK AO2
                 DZE16B46RAB41E46 P0000 T01780178 =
2018-06-24 17:54 METAR KSYR 242154Z 32007KT 9SM -DZ BKN008 OVC018 18/18 A2985 RMK AO2
                 RAB38E48DZB48 SLP103 P0000 T01780178 =
2018-06-24 17:34 METAR KSYR 242134Z 32008KT 10SM BKN008 OVC028 18/18 A2984 RMK AO2 T01830183 =
2018-06-24 16:54 METAR KSYR 242054Z 34009KT 10SM SCT008 BKN020 OVC065 19/19 A2983 RMK AO2 RAE43
                 SLP097 OVC V BKN P0000 60004 T01940189 53007 =
2018-06-24 16:20 METAR KSYR 242020Z 34010KT 10SM -RA FEW008 BKN016 OVC021 18/18 A2983 RMK AO2
                 P0000 T01830183 =
2018-06-24 16:00 METAR KSYR 242000Z 34010G19KT 10SM -RA SCT011 BKN020 OVC060 18/18 A2981 RMK AO2
                 P0000 T01830183 =
2018-06-24 15:54 METAR KSYR 241954Z 33014G19KT 10SM -RA SCT011 BKN023 OVC100 19/19 A2981 RMK AO2
                 SLP091 P0003 T01940194 =
2018-06-24 15:39 METAR KSYR 241939Z 32010KT 6SM -RA BR SCT009 BKN025 OVC110 19/19 A2981 RMK AO2
                 P0003 T01940194 =

Support USWX by starting your Amazon purchase here.